M I D A S
Marine Information and Data Acquisition System
Tripno 653 of the Zeeleeuw from 2004-02-23 08:00:59 to 2004-02-23 13:38:13
Back to CruiseResearch ActivitiesStationsMapUnderway DataData graphs

EquipmentUnitsComment
TimeDGPSUTC
LatitudeDGPSDM.mWGS84
LongitudeDGPSDM.mWGS84
TemperatureSBE03/SBE38deg celciusITS90
ConductivitySBE21S/mITS90
SalinitySBE21 Practical Salinity Units
ChlorophylAChelsea fluorimeterg/lCalibrated in Aceton
Missing or incorrect values are displayed as -999
Sea surface data collected by the RV Zeeleeuw from 2004-02-23 08:00:59 to 2004-02-23 13:38:13
Time Latitude Longitude Temperature Conductivity Salinity ChlorophylA
2004-02-23 08:02:04 51°13.593 2°56.106 11.466508 4.153675 31.497935 -0.882377
2004-02-23 08:03:05 51°13.597 2°56.086 11.449627 4.153675 31.499061 -0.848668
2004-02-23 08:04:05 51°13.619 2°56.001 11.478477 4.15357 31.501547 -0.882377
2004-02-23 08:05:05 51°13.662 2°55.889 11.500393 4.153465 31.501782 -0.848668
2004-02-23 08:06:05 51°13.701 2°55.765 11.479165 4.153359 31.502016 -0.848668
2004-02-23 08:07:03 51°13.711 2°55.752 11.510753 4.153254 31.503941 -0.882377
2004-02-23 08:08:05 51°13.713 2°55.745 11.523906 4.153254 31.504504 -0.848668
2004-02-23 08:09:04 51°13.778 2°55.685 11.479119 4.153254 31.503377 -0.916087
2004-02-23 08:10:04 51°13.88 2°55.588 11.491499 4.153254 31.502814 -0.882377
2004-02-23 08:11:03 51°14.002 2°55.503 11.448251 4.153043 31.503283 -0.882377
2004-02-23 08:12:03 51°14.132 2°55.407 11.487465 4.153043 31.503283 -0.882377
2004-02-23 08:13:04 51°14.275 2°55.245 11.636722 4.152516 31.499948 -0.882377
2004-02-23 08:14:05 51°14.386 2°54.983 11.353951 4.15241 31.500746 -0.882377
2004-02-23 08:15:03 51°14.402 2°54.716 11.238027 4.152937 31.505208 -0.848668
2004-02-23 08:16:03 51°14.365 2°54.481 11.342281 4.152727 31.503986 -0.882377
2004-02-23 08:17:04 51°14.281 2°54.185 11.277182 4.152516 31.501075 -0.848668
2004-02-23 08:18:03 51°14.166 2°53.864 11.307257 4.151778 31.494829 -0.882377
2004-02-23 08:19:03 51°14.045 2°53.532 11.316865 4.151672 31.503515 -0.882377
2004-02-23 08:20:04 51°13.933 2°53.178 11.335342 4.15104 31.494216 -0.848668
2004-02-23 08:21:03 51°13.819 2°52.83 11.349035 4.151672 31.490558 -0.848668
2004-02-23 08:22:03 51°13.696 2°52.48 11.378021 4.15125 31.497128 -0.848668
2004-02-23 08:23:04 51°13.574 2°52.116 11.394002 4.151883 31.506428 -0.848668
2004-02-23 08:24:03 51°13.454 2°51.768 11.372188 4.151461 31.502294 -0.882377
2004-02-23 08:25:03 51°13.33 2°51.417 11.383624 4.15104 31.502669 -0.882377
2004-02-23 08:26:03 51°13.205 2°51.062 11.422417 4.151356 31.506475 -0.882377
2004-02-23 08:27:04 51°13.081 2°50.699 11.464123 4.151145 31.504125 -0.916087
2004-02-23 08:28:03 51°12.96 2°50.352 11.44926 4.151145 31.504689 -0.848668
2004-02-23 08:29:04 51°12.833 2°49.988 11.453297 4.150934 31.504031 -0.814958
2004-02-23 08:30:04 51°12.708 2°49.634 11.468342 4.150513 31.502716 -0.882377
2004-02-23 08:31:03 51°12.587 2°49.28 11.524593 4.150407 31.501823 -0.882377
2004-02-23 08:32:03 51°12.465 2°48.918 11.478065 4.150513 31.504407 -0.882377
2004-02-23 08:33:03 51°12.342 2°48.556 11.512357 4.150407 31.503514 -0.882377
2004-02-23 08:34:03 51°12.221 2°48.195 11.498926 4.150196 31.504548 -0.882377
2004-02-23 08:35:03 51°12.097 2°47.835 11.512219 4.14988 31.504689 -0.882377
2004-02-23 08:36:03 51°11.974 2°47.482 11.517215 4.149564 31.50201 -0.916087
2004-02-23 08:37:04 51°11.848 2°47.126 11.546814 4.149142 31.500131 -0.848668
2004-02-23 08:38:04 51°11.727 2°46.773 11.59453 4.149669 31.503467 -0.882377
2004-02-23 08:39:03 51°11.614 2°46.423 11.615675 4.149564 31.507087 -0.882377
2004-02-23 08:40:03 51°11.497 2°46.068 11.631278 4.149247 31.504972 -0.882377
2004-02-23 08:41:03 51°11.377 2°45.72 11.575667 4.149353 31.508121 -0.848668
2004-02-23 08:42:03 51°11.258 2°45.373 11.585923 4.148826 31.505913 -0.848668
2004-02-23 08:43:04 51°11.143 2°45.017 11.644086 4.147982 31.499331 -0.848668
2004-02-23 08:44:03 51°11.031 2°44.674 11.642897 4.147982 31.499331 -0.882377
2004-02-23 08:45:03 51°10.91 2°44.336 11.620983 4.148193 31.505067 -0.882377
2004-02-23 08:46:03 51°10.804 2°43.99 11.671663 4.147455 31.499379 -0.882377
2004-02-23 08:47:03 51°10.686 2°43.662 11.711841 4.147561 31.500836 -0.848668
2004-02-23 08:48:04 51°10.621 2°43.302 11.736009 4.147772 31.50488 -0.882377
2004-02-23 08:49:03 51°10.568 2°42.942 11.651862 4.147139 31.502341 -0.882377
2004-02-23 08:50:04 51°10.515 2°42.561 11.683504 4.146506 31.499803 -0.848668
2004-02-23 08:51:04 51°10.471 2°42.182 11.661192 4.146823 31.503612 -0.882377
2004-02-23 08:52:04 51°10.438 2°41.791 11.669057 4.146295 31.501402 -0.882377
2004-02-23 08:53:03 51°10.403 2°41.401 11.684373 4.145874 31.50065 -0.882377
2004-02-23 08:54:03 51°10.366 2°41.006 11.752131 4.14619 31.503331 -0.848668
2004-02-23 08:55:04 51°10.327 2°40.599 11.744641 4.146085 31.505261 -0.848668
2004-02-23 08:56:05 51°10.289 2°40.193 11.77035 4.145452 31.502157 -0.882377
2004-02-23 08:57:03 51°10.254 2°39.806 11.747153 4.145347 31.504087 -0.882377
2004-02-23 08:58:03 51°10.213 2°39.407 11.816855 4.144925 31.501641 -0.848668
2004-02-23 08:59:04 51°10.17 2°39.003 11.782858 4.144609 31.501218 -0.848668
2004-02-23 09:00:03 51°10.131 2°38.617 11.874086 4.14503 31.506489 -0.882377
2004-02-23 09:01:04 51°10.09 2°38.22 11.852613 4.144398 31.503384 -0.882377
2004-02-23 09:02:04 51°10.051 2°37.828 11.798284 4.144082 31.504092 -0.882377
2004-02-23 09:03:03 51°10.002 2°37.442 11.907444 4.143554 31.500186 -0.882377
2004-02-23 09:04:04 51°9.955 2°37.043 11.842171 4.143554 31.499056 -0.882377
2004-02-23 09:05:03 51°9.909 2°36.653 11.913868 4.143344 31.501223 -0.882377
2004-02-23 09:06:04 51°9.923 2°36.253 11.920473 4.142816 31.499577 -0.882377
2004-02-23 09:07:05 51°10.037 2°35.921 11.946842 4.142816 31.501837 -0.848668
2004-02-23 09:08:03 51°10.221 2°35.813 11.945111 4.143133 31.505651 -0.848668
2004-02-23 09:09:03 51°10.419 2°35.849 11.958588 4.142395 31.503347 -0.882377
2004-02-23 09:10:03 51°10.618 2°35.886 11.903435 4.141657 31.501042 -0.882377
2004-02-23 09:11:04 51°10.813 2°35.916 11.952488 4.141551 31.497887 -0.882377
2004-02-23 09:12:03 51°10.991 2°36.023 12.002732 4.142184 31.507211 -0.882377
2004-02-23 09:13:04 51°11.164 2°36.166 11.956813 4.141235 31.501421 -0.848668
2004-02-23 09:14:04 51°11.323 2°36.337 12.000139 4.140919 31.501565 -0.848668
2004-02-23 09:15:04 51°11.476 2°36.523 12.006417 4.140708 31.501472 -0.848668
2004-02-23 09:16:04 51°11.589 2°36.767 12.051439 4.140497 31.503641 -0.882377
2004-02-23 09:17:04 51°11.7 2°37.008 11.988127 4.140075 31.500627 -0.882377
2004-02-23 09:18:04 51°11.808 2°37.256 12.043073 4.139337 31.497191 -0.882377
2004-02-23 09:19:04 51°11.91 2°37.511 12.090296 4.140497 31.512694 -0.848668
2004-02-23 09:20:04 51°12.012 2°37.77 12.06053 4.13997 31.507087 -0.848668
2004-02-23 09:21:04 51°12.116 2°38.026 12.078301 4.139021 31.502992 -0.882377
2004-02-23 09:22:04 51°12.215 2°38.295 12.070666 4.138705 31.503702 -0.882377
2004-02-23 09:23:04 51°12.317 2°38.562 12.077028 4.138599 31.504504 -0.848668
2004-02-23 09:24:04 51°12.418 2°38.827 12.110375 4.137967 31.500265 -0.882377
2004-02-23 09:25:04 51°12.522 2°39.093 12.106787 4.138178 31.504885 -0.882377
2004-02-23 09:26:04 51°12.624 2°39.359 12.043619 4.136807 31.496075 -0.848668
2004-02-23 09:27:04 51°12.728 2°39.628 12.112555 4.137018 31.502395 -0.882377
2004-02-23 09:28:04 51°12.828 2°39.897 12.095248 4.13628 31.49556 -0.882377
2004-02-23 09:29:04 51°12.93 2°40.166 12.123364 4.136807 31.502303 -0.882377
2004-02-23 09:30:04 51°13.032 2°40.429 12.163995 4.136069 31.496034 -0.882377
2004-02-23 09:31:04 51°13.132 2°40.69 12.142797 4.136385 31.501552 -0.882377
2004-02-23 09:32:04 51°13.232 2°40.95 12.16109 4.135647 31.496981 -0.848668
2004-02-23 09:33:04 51°13.333 2°41.208 12.16699 4.13512 31.495333 -0.848668
2004-02-23 09:34:04 51°13.433 2°41.47 12.199067 4.135647 31.502078 -0.848668
2004-02-23 09:35:04 51°13.532 2°41.731 12.170439 4.134699 31.496281 -0.882377
2004-02-23 09:36:04 51°13.632 2°41.988 12.181284 4.134699 31.496847 -0.848668
2004-02-23 09:37:04 51°13.732 2°42.246 12.177382 4.134277 31.497229 -0.882377
2004-02-23 09:38:04 51°13.829 2°42.51 12.238791 4.134382 31.499824 -0.848668
2004-02-23 09:39:04 51°13.917 2°42.781 12.25044 4.134382 31.501524 -0.848668
2004-02-23 09:40:04 51°14.008 2°43.052 12.260547 4.134171 31.500865 -0.882377
2004-02-23 09:41:04 51°14.097 2°43.325 12.270199 4.133855 31.501577 -0.848668
2004-02-23 09:42:04 51°14.187 2°43.595 12.222151 4.132801 31.494882 -0.848668
2004-02-23 09:43:04 51°14.277 2°43.867 12.228227 4.133328 31.502764 -0.882377
2004-02-23 09:44:04 51°14.367 2°44.142 12.297063 4.133434 31.502526 -0.848668
2004-02-23 09:45:04 51°14.457 2°44.42 12.204057 4.132906 31.50258 -0.882377
2004-02-23 09:46:04 51°14.539 2°44.705 12.237703 4.132168 31.494605 -0.882377
2004-02-23 09:47:04 51°14.611 2°45.003 12.259459 4.131536 31.490927 -0.848668
2004-02-23 09:48:04 51°14.681 2°45.304 12.271422 4.132485 31.502963 -0.882377
2004-02-23 09:49:04 51°14.753 2°45.6 12.219159 4.131747 31.501224 -0.882377
2004-02-23 09:50:04 51°14.824 2°45.898 12.357275 4.131747 31.494987 -0.882377
2004-02-23 09:51:04 51°14.895 2°46.197 12.264081 4.131325 31.499338 -0.882377
2004-02-23 09:52:04 51°14.967 2°46.495 12.336637 4.131009 31.494947 -0.848668
2004-02-23 09:53:04 51°15.041 2°46.793 12.306211 4.130692 31.497928 -0.882377
2004-02-23 09:54:04 51°15.113 2°47.092 12.352433 4.130692 31.497361 -0.882377
2004-02-23 09:55:04 51°15.182 2°47.393 12.406581 4.130587 31.498166 -0.882377
2004-02-23 09:56:04 51°15.253 2°47.693 12.314906 4.130376 31.498641 -0.848668
2004-02-23 09:57:04 51°15.322 2°47.994 12.391295 4.13006 31.499922 -0.848668
2004-02-23 09:58:04 51°15.389 2°48.299 12.419331 4.130165 31.499117 -0.848668
2004-02-23 09:59:04 51°15.461 2°48.605 12.409565 4.129216 31.48991 -0.882377
2004-02-23 10:00:04 51°15.53 2°48.918 12.359447 4.129744 31.500635 -0.882377
2004-02-23 10:01:04 51°15.599 2°49.23 12.329711 4.129533 31.499408 -0.848668
2004-02-23 10:02:04 51°15.668 2°49.545 12.433254 4.129216 31.49842 -0.882377
2004-02-23 10:03:04 51°15.737 2°49.859 12.384194 4.1289 31.498566 -0.882377
2004-02-23 10:04:04 51°15.805 2°50.163 12.425479 4.128689 31.497907 -0.882377
2004-02-23 10:05:04 51°15.874 2°50.464 12.394416 4.128268 31.49375 -0.882377
2004-02-23 10:06:04 51°15.945 2°50.773 12.45201 4.129111 31.506605 -0.848668
2004-02-23 10:07:04 51°16.016 2°51.078 12.417025 4.128479 31.501788 -0.882377
2004-02-23 10:08:04 51°16.083 2°51.386 12.439943 4.127951 31.496734 -0.848668
2004-02-23 10:09:04 51°16.151 2°51.695 12.436554 4.12753 31.495983 -0.882377
2004-02-23 10:10:04 51°16.213 2°52.005 12.44487 4.127741 31.501752 -0.848668
2004-02-23 10:11:04 51°16.34 2°52.202 12.419331 4.127213 31.497833 -0.916087
2004-02-23 10:12:04 51°16.524 2°52.184 12.431537 4.126686 31.491642 -0.916087
2004-02-23 10:13:04 51°16.712 2°52.197 12.467823 4.127003 31.496038 -0.882377
2004-02-23 10:14:04 51°16.896 2°52.221 12.516145 4.12753 31.499389 -0.882377
2004-02-23 10:15:04 51°17.074 2°52.235 12.470669 4.126475 31.492686 -0.882377
2004-02-23 10:16:04 51°17.258 2°52.249 12.448756 4.126265 31.496001 -0.848668
2004-02-23 10:17:04 51°17.439 2°52.262 12.514023 4.126581 31.500398 -0.882377
2004-02-23 10:18:04 51°17.618 2°52.288 12.527836 4.126581 31.498694 -0.848668
2004-02-23 10:19:04 51°17.801 2°52.358 12.542729 4.126686 31.504704 -0.916087
2004-02-23 10:20:04 51°17.977 2°52.446 12.562807 4.126792 31.508443 -0.848668
2004-02-23 10:21:04 51°18.149 2°52.541 12.519169 4.125843 31.500931 -0.882377
2004-02-23 10:22:04 51°18.318 2°52.651 12.582382 4.126686 31.508114 -0.882377
2004-02-23 10:23:04 51°18.485 2°52.769 12.5212 4.125421 31.500748 -0.882377
2004-02-23 10:24:04 51°18.658 2°52.888 12.591943 4.125738 31.50401 -0.848668
2004-02-23 10:25:04 51°18.809 2°53.057 12.574851 4.124472 31.497212 -0.882377
2004-02-23 10:26:04 51°18.902 2°53.322 12.568581 4.124367 31.499156 -0.882377
2004-02-23 10:27:04 51°18.975 2°53.608 12.576925 4.124367 31.499724 -0.848668
2004-02-23 10:28:04 51°19.042 2°53.898 12.618767 4.124894 31.503078 -0.882377
2004-02-23 10:29:04 51°19.113 2°54.183 12.605514 4.124472 31.504033 -0.882377
2004-02-23 10:30:04 51°19.185 2°54.463 12.618181 4.123629 31.495142 -0.882377
2004-02-23 10:31:04 51°19.257 2°54.746 12.594738 4.12384 31.502055 -0.882377
2004-02-23 10:32:04 51°19.33 2°55.03 12.477039 4.123418 31.501873 -0.882377
2004-02-23 10:33:04 51°19.399 2°55.316 12.622689 4.123524 31.501066 -0.882377
2004-02-23 10:34:04 51°19.467 2°55.602 12.60619 4.122891 31.496813 -0.882377
2004-02-23 10:35:04 51°19.534 2°55.892 12.604387 4.123102 31.500315 -0.848668
2004-02-23 10:36:04 51°19.605 2°56.181 12.534696 4.122891 31.501362 -0.848668
2004-02-23 10:37:04 51°19.676 2°56.466 12.547106 4.122364 31.497438 -0.882377
2004-02-23 10:38:04 51°19.744 2°56.75 12.632153 4.123102 31.505434 -0.848668
2004-02-23 10:39:04 51°19.814 2°57.033 12.623049 4.12268 31.505822 -0.848668
2004-02-23 10:40:04 51°19.884 2°57.321 12.651032 4.122153 31.501897 -0.848668
2004-02-23 10:41:04 51°19.959 2°57.608 12.639813 4.122048 31.502136 -0.882377
2004-02-23 10:42:04 51°20.033 2°57.895 12.616513 4.121942 31.504651 -0.882377
2004-02-23 10:43:04 51°20.106 2°58.184 12.607768 4.121204 31.49836 -0.882377
2004-02-23 10:44:04 51°20.181 2°58.475 12.639318 4.121626 31.5048 -0.882377
2004-02-23 10:45:04 51°20.256 2°58.767 12.672654 4.120572 31.498088 -0.882377
2004-02-23 10:46:04 51°20.335 2°59.058 12.649906 4.121099 31.503151 -0.882377
2004-02-23 10:47:04 51°20.411 2°59.35 12.62341 4.120572 31.500933 -0.882377
2004-02-23 10:48:04 51°20.478 2°59.652 12.610473 4.121099 31.509413 -0.882377
2004-02-23 10:49:04 51°20.535 2°59.961 12.633054 4.120361 31.503119 -0.848668
2004-02-23 10:50:04 51°20.595 3°0.268 12.691612 4.12015 31.50189 -0.882377
2004-02-23 10:51:04 51°20.654 3°0.573 12.635262 4.119623 31.500241 -0.848668
2004-02-23 10:52:04 51°20.714 3°0.876 12.672879 4.119307 31.498682 -0.848668
2004-02-23 10:53:04 51°20.777 3°1.178 12.680805 4.119201 31.501199 -0.882377
2004-02-23 10:54:04 51°20.833 3°1.489 12.647248 4.119096 31.501438 -0.882377
2004-02-23 10:55:04 51°20.895 3°1.796 12.701742 4.119518 31.504466 -0.916087
2004-02-23 10:56:04 51°20.955 3°2.101 12.704668 4.11899 31.503386 -0.882377
2004-02-23 10:57:04 51°21.012 3°2.404 12.627826 4.118674 31.501258 -0.882377
2004-02-23 10:58:04 51°21.074 3°2.705 12.693953 4.118463 31.500028 -0.882377
2004-02-23 10:59:04 51°21.134 3°3.008 12.653105 4.117831 31.498049 -0.848668
2004-02-23 11:00:04 51°21.192 3°3.311 12.724427 4.118674 31.505814 -0.848668
2004-02-23 11:01:04 51°21.254 3°3.612 12.661529 4.118569 31.504345 -0.882377
2004-02-23 11:02:04 51°21.315 3°3.914 12.67324 4.117409 31.497298 -0.848668
2004-02-23 11:03:04 51°21.374 3°4.219 12.701382 4.118252 31.504495 -0.882377
2004-02-23 11:04:04 51°21.43 3°4.53 12.740941 4.11762 31.503085 -0.848668
2004-02-23 11:05:04 51°21.492 3°4.837 12.636118 4.117831 31.503175 -0.882377
2004-02-23 11:06:04 51°21.554 3°5.148 12.713806 4.117831 31.502605 -0.848668
2004-02-23 11:07:04 51°21.615 3°5.462 12.678824 4.117093 31.500866 -0.848668
2004-02-23 11:08:04 51°21.677 3°5.775 12.761049 4.116882 31.500206 -0.848668
2004-02-23 11:09:04 51°21.737 3°6.089 12.751333 4.116776 31.499306 -0.882377
2004-02-23 11:10:04 51°21.792 3°6.406 12.669186 4.116882 31.500776 -0.882377
2004-02-23 11:11:04 51°21.84 3°6.727 12.660628 4.117409 31.509264 -0.882377
2004-02-23 11:12:04 51°21.892 3°7.047 12.743416 4.116671 31.501825 -0.882377
2004-02-23 11:13:04 51°21.934 3°7.369 12.655808 4.116671 31.504675 -0.848668
2004-02-23 11:14:04 51°21.964 3°7.699 12.765637 4.116882 31.505905 -0.882377
2004-02-23 11:15:04 51°21.994 3°8.031 12.692648 4.116882 31.509895 -0.882377
2004-02-23 11:16:04 51°22.013 3°8.366 12.787581 4.116144 31.500175 -0.916087
2004-02-23 11:17:04 51°22.03 3°8.703 12.762354 4.116144 31.500175 -0.882377
2004-02-23 11:18:04 51°22.052 3°9.038 12.655177 4.116355 31.505965 -0.882377
2004-02-23 11:19:04 51°22.093 3°9.369 12.714031 4.115722 31.502275 -0.882377
2004-02-23 11:20:04 51°22.142 3°9.698 12.767661 4.115722 31.501135 -0.882377
2004-02-23 11:21:04 51°22.204 3°10.018 12.753223 4.115617 31.500805 -0.882377
2004-02-23 11:22:04 51°22.264 3°10.339 12.806641 4.115933 31.506356 -0.882377
2004-02-23 11:23:04 51°22.327 3°10.657 12.765277 4.115933 31.506926 -0.882377
2004-02-23 11:24:04 51°22.391 3°10.973 12.818461 4.115406 31.505276 -0.848668
2004-02-23 11:25:04 51°22.454 3°11.286 12.814417 4.115617 31.508217 -0.882377
2004-02-23 11:26:04 51°22.52 3°11.595 12.773912 4.115617 31.509928 -0.882377
2004-02-23 11:27:04 51°22.585 3°11.908 12.800933 4.115828 31.507737 -0.848668
2004-02-23 11:28:04 51°22.647 3°12.222 12.763613 4.115617 31.508788 -0.882377
2004-02-23 11:29:04 51°22.709 3°12.544 12.812889 4.114668 31.501256 -0.848668
2004-02-23 11:30:04 51°22.781 3°12.859 12.823809 4.115617 31.512781 -0.882377
2004-02-23 11:31:04 51°22.959 3°12.994 12.775665 4.114457 31.501736 -0.882377
2004-02-23 11:32:04 51°23.164 3°13.065 12.828078 4.114774 31.506719 -0.882377
2004-02-23 11:33:04 51°23.369 3°13.139 12.859568 4.114984 31.50966 -0.882377
2004-02-23 11:34:04 51°23.571 3°13.203 12.857906 4.114457 31.505729 -0.916087
2004-02-23 11:35:04 51°23.777 3°13.202 12.866843 4.115301 31.514073 -0.882377
2004-02-23 11:36:04 51°23.925 3°12.968 12.844296 4.114036 31.50555 -0.882377
2004-02-23 11:37:04 51°23.969 3°12.615 12.880583 4.114774 31.510712 -0.882377
2004-02-23 11:38:04 51°24.008 3°12.254 12.862128 4.113825 31.503178 -0.882377
2004-02-23 11:39:04 51°24.055 3°11.895 12.90783 4.114563 31.511193 -0.882377
2004-02-23 11:40:04 51°24.093 3°11.531 12.895039 4.113614 31.50423 -0.882377
2004-02-23 11:41:04 51°24.118 3°11.161 12.884175 4.114036 31.508403 -0.882377
2004-02-23 11:42:04 51°24.156 3°10.796 12.921248 4.11393 31.509214 -0.882377
2004-02-23 11:43:04 51°24.206 3°10.45 12.933676 4.113719 31.506271 -0.882377
2004-02-23 11:44:04 51°24.257 3°10.103 12.856828 4.112454 31.499458 -0.848668
2004-02-23 11:45:04 51°24.288 3°9.75 12.925376 4.113614 31.507083 -0.882377
2004-02-23 11:46:04 51°24.302 3°9.392 12.949555 4.113614 31.509365 -0.882377
2004-02-23 11:47:04 51°24.302 3°9.033 12.919363 4.112981 31.503961 -0.848668
2004-02-23 11:48:04 51°24.305 3°8.68 12.925151 4.113298 31.506093 -0.882377
2004-02-23 11:49:04 51°24.301 3°8.323 12.948613 4.113192 31.508616 -0.882377
2004-02-23 11:50:04 51°24.29 3°7.96 12.945473 4.112771 31.506155 -0.882377
2004-02-23 11:51:04 51°24.256 3°7.602 12.969331 4.112981 31.512523 -0.882377
2004-02-23 11:52:04 51°24.221 3°7.24 12.988564 4.112454 31.505735 -0.882377
2004-02-23 11:53:04 51°24.183 3°6.881 13.013168 4.112454 31.504023 -0.882377
2004-02-23 11:54:04 51°24.124 3°6.522 12.913754 4.112138 31.503033 -0.882377
2004-02-23 11:55:04 51°24.066 3°6.16 12.962381 4.112033 31.503274 -0.848668
2004-02-23 11:56:04 51°24.057 3°5.8 13.014422 4.111927 31.506369 -0.882377
2004-02-23 11:57:04 51°24.134 3°5.481 12.994839 4.111822 31.504897 -0.882377
2004-02-23 11:58:04 51°24.229 3°5.172 12.972649 4.111505 31.503336 -0.882377
2004-02-23 11:59:04 51°24.322 3°4.86 13.009807 4.110978 31.501685 -0.848668
2004-02-23 12:00:04 51°24.409 3°4.542 13.064677 4.112138 31.51331 -0.848668
2004-02-23 12:01:04 51°24.496 3°4.219 13.057827 4.111927 31.513221 -0.882377
2004-02-23 12:02:04 51°24.581 3°3.901 13.085539 4.112244 31.515925 -0.848668
2004-02-23 12:03:04 51°24.665 3°3.583 13.078914 4.111084 31.50487 -0.882377
2004-02-23 12:04:04 51°24.738 3°3.255 13.05299 4.1114 31.514999 -0.848668
2004-02-23 12:05:04 51°24.777 3°2.903 13.070542 4.111189 31.509769 -0.882377
2004-02-23 12:06:04 51°24.722 3°2.546 13.121963 4.111084 31.510581 -0.882377
2004-02-23 12:07:04 51°24.641 3°2.195 13.111405 4.111084 31.511724 -0.882377
2004-02-23 12:08:04 51°24.569 3°1.838 13.130686 4.110557 31.510645 -0.882377
2004-02-23 12:09:04 51°24.496 3°1.482 13.123574 4.110768 31.514162 -0.882377
2004-02-23 12:10:04 51°24.425 3°1.125 13.139005 4.109819 31.507763 -0.882377
2004-02-23 12:11:04 51°24.356 3°0.769 13.1526 4.11024 31.509655 -0.882377
2004-02-23 12:12:04 51°24.288 3°0.411 13.112971 4.11024 31.510226 -0.882377
2004-02-23 12:13:04 51°24.219 3°0.055 13.094714 4.109502 31.50563 -0.882377
2004-02-23 12:14:04 51°24.149 2°59.691 13.158412 4.109081 31.503738 -0.848668
2004-02-23 12:15:04 51°24.079 2°59.331 13.089746 4.109397 31.511586 -0.848668
2004-02-23 12:16:04 51°24.003 2°58.974 13.141107 4.109608 31.512246 -0.916087
2004-02-23 12:17:04 51°23.93 2°58.61 13.150453 4.109081 31.506024 -0.848668
2004-02-23 12:18:04 51°23.851 2°58.245 13.160827 4.108554 31.507231 -0.882377
2004-02-23 12:19:04 51°23.775 2°57.882 13.185636 4.109503 31.513059 -0.882377
2004-02-23 12:20:04 51°23.696 2°57.52 13.191714 4.10887 31.512222 -0.882377
2004-02-23 12:21:04 51°23.622 2°57.158 13.212982 4.108765 31.517039 -0.882377
2004-02-23 12:22:04 51°23.551 2°56.794 13.178127 4.108132 31.50934 -0.848668
2004-02-23 12:23:04 51°23.502 2°56.428 13.21392 4.107921 31.510395 -0.848668
2004-02-23 12:24:04 51°23.464 2°56.061 13.198908 4.108237 31.513101 -0.882377
2004-02-23 12:25:04 51°23.423 2°55.696 13.196495 4.107605 31.509405 -0.882377
2004-02-23 12:26:04 51°23.383 2°55.326 13.24054 4.108343 31.514575 -0.882377
2004-02-23 12:27:04 51°23.354 2°54.956 13.267775 4.107921 31.511539 -0.882377
2004-02-23 12:28:04 51°23.325 2°54.588 13.265677 4.10771 31.513166 -0.882377
2004-02-23 12:29:04 51°23.295 2°54.224 13.192518 4.107289 31.509558 -0.882377
2004-02-23 12:30:04 51°23.271 2°53.858 13.251971 4.106867 31.505378 -0.848668
2004-02-23 12:31:04 51°23.243 2°53.497 13.245631 4.106761 31.505619 -0.916087
2004-02-23 12:32:04 51°23.218 2°53.135 13.248399 4.106656 31.506433 -0.882377
2004-02-23 12:33:04 51°23.194 2°52.77 13.299862 4.107289 31.511846 -0.848668
2004-02-23 12:34:04 51°23.168 2°52.405 13.252775 4.106972 31.511999 -0.848668
2004-02-23 12:35:04 51°23.143 2°52.037 13.259293 4.106024 31.507884 -0.882377
2004-02-23 12:36:04 51°23.121 2°51.678 13.26224 4.106762 31.513055 -0.848668
2004-02-23 12:37:04 51°23.091 2°51.322 13.356456 4.105918 31.506981 -0.882377
2004-02-23 12:38:04 51°23.065 2°50.964 13.241121 4.106445 31.512637 -0.882377
2004-02-23 12:39:04 51°23.041 2°50.61 13.270855 4.106024 31.510744 -0.848668
2004-02-23 12:40:04 51°23.018 2°50.256 13.274649 4.105391 31.509335 -0.848668
2004-02-23 12:41:04 51°22.998 2°49.899 13.339068 4.106235 31.5177 -0.916087
2004-02-23 12:42:04 51°22.978 2°49.544 13.357571 4.105286 31.509005 -0.882377
2004-02-23 12:43:04 51°22.96 2°49.188 13.369204 4.106129 31.516797 -0.848668
2004-02-23 12:44:04 51°22.924 2°48.84 13.344062 4.104758 31.508498 -0.882377
2004-02-23 12:45:04 51°22.795 2°48.54 13.326493 4.105497 31.513099 -0.848668
2004-02-23 12:46:04 51°22.634 2°48.271 13.414472 4.104969 31.509731 -0.882377
2004-02-23 12:47:04 51°22.469 2°48.019 13.386183 4.104969 31.504581 -0.848668
2004-02-23 12:48:04 51°22.263 2°47.842 13.335501 4.105286 31.516446 -0.848668
2004-02-23 12:49:04 51°22.041 2°47.717 13.43144 4.104653 31.507596 -0.848668
2004-02-23 12:50:04 51°21.811 2°47.639 13.325065 4.104864 31.515125 -0.916087
2004-02-23 12:51:04 51°21.579 2°47.605 13.366307 4.104653 31.512175 -0.848668
2004-02-23 12:52:04 51°21.343 2°47.616 13.429614 4.104548 31.514707 -0.848668
2004-02-23 12:53:04 51°21.119 2°47.7 13.437095 4.104653 31.515038 -0.848668
2004-02-23 12:54:04 51°20.89 2°47.782 13.415898 4.104231 31.513717 -0.848668
2004-02-23 12:55:04 51°20.664 2°47.871 13.364569 4.104337 31.515192 -0.882377
2004-02-23 12:56:04 51°20.469 2°48.079 13.463404 4.103915 31.510436 -0.882377
2004-02-23 12:57:04 51°20.291 2°48.326 13.422177 4.104126 31.513959 -0.848668
2004-02-23 12:58:04 51°20.112 2°48.573 13.433711 4.104548 31.519289 -0.848668
2004-02-23 12:59:04 51°19.926 2°48.809 13.337062 4.10381 31.517551 -0.882377
2004-02-23 13:00:05 51°19.741 2°49.046 13.498111 4.103177 31.501255 -0.848668
2004-02-23 13:01:04 51°19.554 2°49.272 13.388545 4.10381 31.512396 -0.848668
2004-02-23 13:02:04 51°19.365 2°49.505 13.43941 4.103177 31.513278 -0.882377
2004-02-23 13:03:04 51°19.175 2°49.744 13.394337 4.103599 31.514026 -0.882377
2004-02-23 13:04:04 51°18.986 2°49.984 13.428545 4.103177 31.516143 -0.882377
2004-02-23 13:05:04 51°18.8 2°50.234 13.50207 4.103283 31.512463 -0.882377
2004-02-23 13:06:04 51°18.617 2°50.466 13.492906 4.102755 31.508521 -0.848668
2004-02-23 13:07:04 51°18.432 2°50.716 13.404584 4.10265 31.510481 -0.848668
2004-02-23 13:08:04 51°18.252 2°50.963 13.525774 4.102334 31.491745 -0.882377
2004-02-23 13:09:04 51°18.064 2°51.193 13.497399 4.10265 31.5122 -0.882377
2004-02-23 13:10:04 51°17.89 2°51.459 13.526797 4.102123 31.509976 -0.882377
2004-02-23 13:11:04 51°17.712 2°51.723 13.517014 4.102334 31.511209 -0.882377
2004-02-23 13:12:04 51°17.538 2°51.986 13.542403 4.102545 31.513015 -0.848668
2004-02-23 13:13:04 51°17.364 2°52.242 13.48601 4.10265 31.51793 -0.882377
2004-02-23 13:14:04 51°17.168 2°52.437 13.537157 4.102228 31.510879 -0.848668
2004-02-23 13:15:04 51°16.954 2°52.594 13.555916 4.102123 31.515132 -0.882377
2004-02-23 13:16:04 51°16.739 2°52.743 13.571825 4.102018 31.513656 -0.916087
2004-02-23 13:17:04 51°16.543 2°52.932 13.564893 4.101701 31.5098 -0.848668
2004-02-23 13:18:04 51°16.344 2°53.133 13.529954 4.102018 31.514229 -0.882377
2004-02-23 13:19:04 51°16.145 2°53.32 13.572359 4.101701 31.510946 -0.848668
2004-02-23 13:20:04 51°15.952 2°53.52 13.546848 4.101807 31.514715 -0.848668
2004-02-23 13:21:04 51°15.747 2°53.714 13.567026 4.101701 31.515531 -0.848668
2004-02-23 13:22:04 51°15.562 2°53.861 13.549471 4.101596 31.514627 -0.916087
2004-02-23 13:23:04 51°15.437 2°53.978 13.574758 4.101069 31.509537 -0.848668
2004-02-23 13:24:04 51°15.26 2°54.125 13.586843 4.10128 31.511344 -0.848668
2004-02-23 13:25:04 51°15.06 2°54.28 13.560316 4.101385 31.51454 -0.882377
2004-02-23 13:26:04 51°14.858 2°54.442 13.609052 4.101385 31.511101 -0.882377
2004-02-23 13:27:04 51°14.665 2°54.631 13.606787 4.101385 31.515113 -0.882377
2004-02-23 13:28:04 51°14.491 2°54.858 13.614559 4.10128 31.515356 -0.882377
2004-02-23 13:29:04 51°14.356 2°55.12 13.632985 4.101069 31.514122 -0.882377
2004-02-23 13:30:04 51°14.219 2°55.322 13.618111 4.100858 31.513462 -0.882377
2004-02-23 13:31:04 51°14.09 2°55.443 13.62415 4.100858 31.514608 -0.848668
2004-02-23 13:32:04 51°13.979 2°55.526 13.633207 4.100647 31.513374 -0.882377
2004-02-23 13:33:04 51°13.875 2°55.609 13.639688 4.100647 31.514521 -0.848668
2004-02-23 13:34:04 51°13.774 2°55.689 13.646125 4.100647 31.516241 -0.882377
2004-02-23 13:35:04 51°13.691 2°55.828 13.653137 4.100436 31.514434 -0.882377
2004-02-23 13:36:04 51°13.637 2°55.962 13.662368 4.100331 31.514677 -0.882377
2004-02-23 13:37:04 51°13.606 2°56.057 13.668314 4.100331 31.51525 -0.848668
2004-02-23 13:38:06 51°13.592 2°56.103 13.679007 4.100225 31.515493 -0.848668